Time;durP1;ratioP1;P1;durP2;ratioP2;P2;SDS_P1;SDS_P2;PMS_P1;PMS_P2;Temp;Humidity;BMP_temperature;BMP_pressure;BME280_temperature;BME280_humidity;BME280_pressure;Samples;Min_cycle;Max_cycle;Signal;HPM_P1;HPM_P2
2021/09/15 00:01:29;;;;;;;14.95;9.80;;;;;;;19.38;56.48;100575.25;5009232;28;20512;-67
2021/09/15 00:03:54;;;;;;;13.20;9.02;;;;;;;19.10;56.71;100555.97;5008737;28;20049;-66
2021/09/15 00:06:20;;;;;;;14.63;8.82;;;;;;;19.28;56.67;100577.81;5009065;28;20048;-66
2021/09/15 00:08:45;;;;;;;12.98;8.90;;;;;;;19.30;57.06;100577.00;4998341;28;20034;-66
2021/09/15 00:11:12;;;;;;;17.05;9.40;;;;;;;19.32;56.79;100585.72;4991917;28;20026;-66
2021/09/15 00:13:39;;;;;;;13.40;9.13;;;;;;;19.45;56.74;100581.41;4991806;28;20075;-67
2021/09/15 00:16:05;;;;;;;14.65;9.27;;;;;;;19.34;56.20;100556.91;4991937;28;20038;-67
2021/09/15 00:18:30;;;;;;;15.50;8.98;;;;;;;19.43;55.65;100575.28;4991322;28;20026;-67
2021/09/15 00:20:55;;;;;;;17.40;8.88;;;;;;;19.41;55.22;100569.16;4991384;28;20078;-70
2021/09/15 00:23:21;;;;;;;19.55;10.23;;;;;;;19.26;54.95;100542.94;4991266;28;20061;-67
2021/09/15 00:25:46;;;;;;;17.55;10.00;;;;;;;19.23;55.56;100544.69;4991367;28;20033;-67
2021/09/15 00:28:12;;;;;;;19.15;10.02;;;;;;;19.38;55.66;100569.16;4991454;28;20022;-67
2021/09/15 00:30:37;;;;;;;16.42;9.07;;;;;;;19.29;56.41;100575.25;4991610;28;20462;-66
2021/09/15 00:33:03;;;;;;;16.92;9.52;;;;;;;19.18;56.89;100569.97;4991858;28;20077;-66
2021/09/15 00:35:28;;;;;;;16.65;9.23;;;;;;;18.92;57.35;100547.19;4991327;28;20023;-66
2021/09/15 00:37:54;;;;;;;19.70;8.93;;;;;;;19.10;57.36;100574.28;4994699;28;20023;-68
2021/09/15 00:40:19;;;;;;;18.42;10.00;;;;;;;19.11;57.39;100564.72;4994576;28;20030;-66
2021/09/15 00:42:45;;;;;;;13.52;9.10;;;;;;;19.18;57.25;100572.59;4994938;28;20114;-66
2021/09/15 00:45:10;;;;;;;17.20;10.13;;;;;;;19.26;57.36;100569.97;4995054;28;20404;-67
2021/09/15 00:47:36;;;;;;;18.85;9.20;;;;;;;19.28;56.56;100563.00;5000819;28;20590;-73
2021/09/15 00:50:02;;;;;;;20.65;9.82;;;;;;;18.90;57.13;100535.88;4992586;28;20145;-74
2021/09/15 00:52:27;;;;;;;18.52;9.38;;;;;;;19.12;57.29;100571.69;5000634;28;20473;-71
2021/09/15 00:54:53;;;;;;;15.85;9.43;;;;;;;19.18;57.05;100569.97;5023170;28;20642;-69
2021/09/15 00:57:18;;;;;;;18.33;9.98;;;;;;;19.23;57.23;100564.75;5019937;28;20037;-69
2021/09/15 00:59:44;;;;;;;18.48;9.48;;;;;;;19.35;57.46;100575.25;5012090;28;20030;-74
2021/09/15 01:02:10;;;;;;;13.80;9.70;;;;;;;19.31;57.23;100573.47;4990838;28;20405;-68
2021/09/15 01:04:35;;;;;;;15.57;9.57;;;;;;;19.24;56.85;100566.50;4998291;28;20026;-70
2021/09/15 01:07:01;;;;;;;15.35;9.65;;;;;;;19.24;57.67;100569.97;4994513;28;20054;-69
2021/09/15 01:09:29;;;;;;;16.55;9.65;;;;;;;19.19;57.82;100569.09;5008590;28;20038;-74
2021/09/15 01:11:54;;;;;;;16.67;10.05;;;;;;;19.17;57.96;100567.34;4994357;28;20457;-69
2021/09/15 01:14:22;;;;;;;15.48;9.77;;;;;;;19.13;58.32;100565.56;4994343;28;20027;-69
2021/09/15 01:17:02;;;;;;;14.85;10.38;;;;;;;18.98;58.18;100535.00;4977635;28;20034;-70
2021/09/15 01:19:27;;;;;;;16.23;9.70;;;;;;;19.23;58.25;100564.75;4994326;28;20054;-63
2021/09/15 01:21:54;;;;;;;20.13;9.18;;;;;;;19.03;57.75;100520.22;4995714;28;20037;-67
2021/09/15 01:24:21;;;;;;;14.98;9.77;;;;;;;19.16;56.99;100558.59;4993744;28;20026;-70
2021/09/15 01:26:47;;;;;;;15.32;8.88;;;;;;;18.85;54.97;100497.44;4995670;28;20117;-66
2021/09/15 01:29:18;;;;;;;19.35;9.90;;;;;;;18.90;54.13;100509.72;4995743;28;20509;-67
2021/09/15 01:32:03;;;;;;;13.23;8.68;;;;;;;18.99;52.46;100544.59;4995453;28;20181;-67
2021/09/15 01:34:33;;;;;;;18.58;8.88;;;;;;;18.76;52.33;100542.75;4994377;28;20030;-67
2021/09/15 01:36:58;;;;;;;17.30;8.57;;;;;;;18.74;51.82;100555.81;4994795;28;20024;-68
2021/09/15 01:39:24;;;;;;;17.55;10.00;;;;;;;18.73;50.99;100561.91;4993491;28;20105;-68
2021/09/15 01:42:10;;;;;;;19.50;9.70;;;;;;;18.73;50.63;100567.13;4992878;28;20057;-69
2021/09/15 01:44:46;;;;;;;19.02;9.57;;;;;;;18.72;50.31;100565.38;4953687;28;20070;-67
2021/09/15 01:47:16;;;;;;;17.35;9.30;;;;;;;18.45;50.50;100550.41;4955722;28;20182;-67
2021/09/15 01:49:43;;;;;;;21.73;10.02;;;;;;;18.36;51.04;100568.69;4953346;28;20047;-68
2021/09/15 01:52:10;;;;;;;18.27;9.65;;;;;;;17.92;51.16;100573.53;4954156;28;20113;-69
2021/09/15 01:54:36;;;;;;;18.42;9.57;;;;;;;17.94;50.75;100579.69;4955121;28;20110;-69
2021/09/15 01:57:02;;;;;;;22.30;9.20;;;;;;;18.07;50.19;100579.81;4953932;28;20578;-66
2021/09/15 01:59:28;;;;;;;16.23;10.07;;;;;;;18.08;50.96;100577.19;4970250;28;20074;-65
2021/09/15 02:01:53;;;;;;;17.75;10.02;;;;;;;18.01;51.36;100580.59;4971370;28;20038;-67
2021/09/15 02:04:19;;;;;;;24.17;10.15;;;;;;;17.89;51.89;100583.09;4971024;28;20079;-67
2021/09/15 02:06:44;;;;;;;20.33;9.70;;;;;;;17.86;52.16;100589.16;4971132;28;20073;-65
2021/09/15 02:09:10;;;;;;;21.52;9.40;;;;;;;17.94;51.93;100586.63;4954484;28;20579;-71
2021/09/15 02:11:38;;;;;;;15.57;9.48;;;;;;;17.35;52.48;100553.88;4970753;28;20099;-66
2021/09/15 02:14:05;;;;;;;16.58;9.70;;;;;;;16.33;55.93;100554.28;4970999;28;20046;-66
2021/09/15 02:16:31;;;;;;;15.45;8.85;;;;;;;16.55;56.00;100592.81;5006791;28;20038;-65
2021/09/15 02:18:56;;;;;;;18.55;9.77;;;;;;;16.95;54.86;100598.63;5008553;28;20111;-66
2021/09/15 02:21:22;;;;;;;26.65;10.45;;;;;;;17.13;54.67;100596.25;5011955;28;20034;-67
2021/09/15 02:23:47;;;;;;;14.68;9.18;;;;;;;17.21;53.42;100601.56;5012170;28;20395;-65
2021/09/15 02:26:17;;;;;;;20.42;9.52;;;;;;;17.33;52.32;100605.16;5011695;28;20033;-67
2021/09/15 02:28:43;;;;;;;21.42;8.55;;;;;;;17.47;51.89;100600.97;5012093;28;20033;-69
2021/09/15 02:31:09;;;;;;;19.75;9.13;;;;;;;17.54;52.55;100602.78;5011951;28;20033;-70
2021/09/15 02:33:34;;;;;;;15.82;8.57;;;;;;;17.63;52.48;100613.31;5011947;28;20037;-69
2021/09/15 02:36:00;;;;;;;16.23;9.02;;;;;;;17.71;52.42;100610.78;5011773;28;20021;-72
2021/09/15 02:38:26;;;;;;;16.10;9.35;;;;;;;17.73;52.57;100603.84;4993508;28;20084;-74
2021/09/15 02:40:52;;;;;;;14.05;9.18;;;;;;;17.63;52.83;100610.72;4991143;28;20026;-70
2021/09/15 02:43:18;;;;;;;15.95;8.82;;;;;;;17.66;52.93;100606.34;4993710;28;20023;-66
2021/09/15 02:45:43;;;;;;;20.50;9.45;;;;;;;17.64;52.33;100603.75;5000565;28;20014;-65
2021/09/15 02:48:09;;;;;;;18.77;9.27;;;;;;;17.54;51.68;100592.31;5006910;28;20038;-69
2021/09/15 02:50:34;;;;;;;19.92;9.25;;;;;;;17.61;51.12;100608.94;5011298;28;20049;-68
2021/09/15 02:53:00;;;;;;;20.77;8.82;;;;;;;17.48;51.30;100602.69;5002268;28;20034;-72
2021/09/15 02:55:26;;;;;;;22.33;9.88;;;;;;;17.37;50.96;100588.66;5025559;28;20101;-65
2021/09/15 02:57:51;;;;;;;21.35;9.30;;;;;;;17.52;50.45;100611.44;5030885;28;20025;-65
2021/09/15 03:00:17;;;;;;;19.63;9.25;;;;;;;17.46;50.71;100612.28;5031397;28;20031;-65
2021/09/15 03:02:44;;;;;;;21.55;9.32;;;;;;;17.39;51.04;100619.13;5031252;28;20032;-68
2021/09/15 03:05:10;;;;;;;19.92;9.18;;;;;;;17.36;51.06;100613.00;5031438;28;20033;-68
2021/09/15 03:07:36;;;;;;;16.02;8.93;;;;;;;17.34;51.30;100612.13;5030950;28;20029;-70
2021/09/15 03:10:02;;;;;;;16.98;9.80;;;;;;;17.30;51.42;100612.09;5031004;28;20025;-70
2021/09/15 03:12:28;;;;;;;20.38;8.82;;;;;;;17.28;51.57;100624.25;5019165;28;20068;-69
2021/09/15 03:14:53;;;;;;;21.08;9.18;;;;;;;17.18;51.31;100596.28;4990064;28;20026;-69
2021/09/15 03:17:19;;;;;;;21.88;10.20;;;;;;;17.07;52.13;100585.75;4970328;28;20045;-69
2021/09/15 03:19:44;;;;;;;17.52;8.75;;;;;;;17.18;52.83;100606.72;5010827;28;20054;-66
2021/09/15 03:22:09;;;;;;;16.45;9.82;;;;;;;17.32;52.96;100632.09;5011176;28;20488;-64
2021/09/15 03:24:35;;;;;;;11.80;9.15;;;;;;;17.17;53.12;100620.66;5011086;28;20026;-66
2021/09/15 03:27:03;;;;;;;16.10;9.52;;;;;;;16.76;53.74;100585.31;5010952;28;20034;-67
2021/09/15 03:29:33;;;;;;;20.98;9.75;;;;;;;16.84;53.97;100608.88;4996199;28;20057;-70
2021/09/15 03:31:59;;;;;;;16.02;9.07;;;;;;;16.84;53.92;100624.50;5011088;28;20028;-66
2021/09/15 03:34:24;;;;;;;15.80;9.30;;;;;;;16.75;53.60;100608.75;5010967;28;20120;-66
2021/09/15 03:36:50;;;;;;;15.73;9.50;;;;;;;16.72;53.30;100613.91;5000595;28;20022;-67
2021/09/15 03:39:16;;;;;;;15.77;8.80;;;;;;;16.85;53.17;100631.50;5010507;28;20030;-72
2021/09/15 03:41:42;;;;;;;16.33;8.70;;;;;;;16.81;53.01;100632.31;5006284;28;20084;-67
2021/09/15 03:44:08;;;;;;;15.05;9.57;;;;;;;16.80;53.17;100625.34;5011011;28;20408;-65
2021/09/15 03:46:33;;;;;;;20.73;9.07;;;;;;;16.68;53.11;100620.81;5010811;28;20030;-66
2021/09/15 03:48:59;;;;;;;20.05;9.48;;;;;;;16.68;52.98;100636.47;5011052;28;20026;-69
2021/09/15 03:51:25;;;;;;;12.35;8.15;;;;;;;16.66;52.96;100643.41;5010580;28;20034;-65
2021/09/15 03:53:50;;;;;;;15.07;8.68;;;;;;;16.72;52.97;100646.06;5011271;28;20451;-67
2021/09/15 03:56:16;;;;;;;13.07;8.68;;;;;;;16.72;52.90;100650.41;5031095;28;20512;-71
2021/09/15 03:58:41;;;;;;;17.98;8.50;;;;;;;16.69;53.19;100650.38;5030719;28;20388;-72
2021/09/15 04:01:09;;;;;;;16.55;9.93;;;;;;;16.58;53.58;100656.28;5030457;28;20108;-68
2021/09/15 04:03:35;;;;;;;21.40;9.60;;;;;;;16.70;53.61;100645.19;5002038;28;20030;-69
2021/09/15 04:06:00;;;;;;;17.48;9.20;;;;;;;16.65;53.92;100652.94;5028312;28;20024;-70
2021/09/15 04:08:26;;;;;;;16.02;9.63;;;;;;;16.72;53.84;100656.50;5030756;28;20113;-71
2021/09/15 04:10:51;;;;;;;20.17;10.00;;;;;;;16.56;54.32;100654.50;5024342;28;20476;-70
2021/09/15 04:13:17;;;;;;;16.98;9.63;;;;;;;16.44;54.86;100645.66;5021264;28;20030;-70
2021/09/15 04:15:42;;;;;;;17.70;9.70;;;;;;;16.41;55.13;100660.38;5014551;28;20030;-69
2021/09/15 04:18:08;;;;;;;20.40;10.50;;;;;;;16.38;55.31;100655.13;5002444;28;20022;-69
2021/09/15 04:20:33;;;;;;;15.38;9.70;;;;;;;16.26;55.48;100650.56;5014143;28;20397;-69
2021/09/15 04:22:59;;;;;;;18.50;9.95;;;;;;;16.42;55.25;100667.34;5013541;28;20018;-68
2021/09/15 04:33:36;;;;;;;18.52;9.43;;;;;;;16.07;56.19;100676.28;5005038;28;20095;-69
2021/09/15 04:36:02;;;;;;;21.60;11.32;;;;;;;16.04;56.51;100672.75;5014316;28;20053;-71
2021/09/15 04:38:27;;;;;;;16.50;10.65;;;;;;;16.05;56.63;100667.59;4999256;28;20033;-70
2021/09/15 04:40:53;;;;;;;18.23;9.88;;;;;;;15.97;56.67;100667.44;5012632;28;20038;-67
2021/09/15 04:43:18;;;;;;;15.52;9.82;;;;;;;15.71;57.31;100656.50;5013640;28;20034;-68
2021/09/15 04:45:44;;;;;;;14.90;9.68;;;;;;;15.81;57.27;100668.88;5013920;28;20034;-69
2021/09/15 04:48:09;;;;;;;18.55;9.45;;;;;;;15.85;57.16;100662.03;5013821;28;20069;-67
2021/09/15 04:50:35;;;;;;;28.05;9.70;;;;;;;15.92;57.69;100679.50;5013515;28;20033;-68
2021/09/15 04:53:00;;;;;;;31.50;12.73;;;;;;;16.05;56.99;100682.31;5013895;28;20058;-68
2021/09/15 04:55:25;;;;;;;14.07;9.32;;;;;;;16.20;56.50;100681.72;5027512;28;20036;-69
2021/09/15 04:57:51;;;;;;;19.23;10.85;;;;;;;15.20;58.63;100638.19;5033403;28;20030;-67
2021/09/15 05:00:16;;;;;;;17.58;9.93;;;;;;;15.19;59.68;100671.97;5033676;28;20064;-67
2021/09/15 05:02:42;;;;;;;22.83;10.60;;;;;;;15.46;59.05;100679.44;5032885;28;20025;-67
2021/09/15 05:05:07;;;;;;;20.90;10.60;;;;;;;15.73;58.53;100685.19;5033631;28;20377;-68
2021/09/15 05:07:33;;;;;;;17.00;10.57;;;;;;;15.91;58.06;100692.50;5033269;28;20022;-66
2021/09/15 05:09:59;;;;;;;19.25;10.40;;;;;;;16.08;57.90;100687.59;5017990;28;20041;-65
2021/09/15 05:12:24;;;;;;;24.60;10.02;;;;;;;16.25;57.23;100696.59;5013166;28;20026;-69
2021/09/15 05:14:50;;;;;;;21.42;10.25;;;;;;;16.32;57.35;100690.66;5012779;28;20543;-66
2021/09/15 05:17:15;;;;;;;21.52;9.85;;;;;;;15.96;57.89;100642.28;5012800;28;20113;-67
2021/09/15 05:19:41;;;;;;;21.85;10.90;;;;;;;16.45;57.55;100690.84;5003471;28;20050;-64
2021/09/15 05:22:06;;;;;;;19.45;10.27;;;;;;;16.54;57.44;100696.19;5011424;28;20113;-65
2021/09/15 05:24:32;;;;;;;19.83;10.93;;;;;;;16.61;57.22;100684.13;5000408;28;20030;-69
2021/09/15 05:26:57;;;;;;;25.98;9.82;;;;;;;16.73;57.12;100681.72;5012953;28;20033;-69
2021/09/15 05:29:22;;;;;;;17.88;10.25;;;;;;;16.86;56.94;100689.72;5012973;28;20113;-66
2021/09/15 05:31:48;;;;;;;15.80;9.95;;;;;;;16.86;56.99;100672.34;5012350;28;20068;-65
2021/09/15 05:34:13;;;;;;;22.50;10.18;;;;;;;16.94;57.04;100673.34;5013029;28;20034;-66
2021/09/15 05:36:39;;;;;;;16.17;9.60;;;;;;;17.19;56.56;100688.47;5012858;28;20116;-66
2021/09/15 05:39:04;;;;;;;23.50;9.82;;;;;;;17.28;56.52;100694.72;5006794;28;20476;-67
2021/09/15 05:41:30;;;;;;;20.98;10.82;;;;;;;17.42;56.41;100691.38;4997646;28;20033;-65
2021/09/15 05:43:55;;;;;;;20.05;11.10;;;;;;;17.56;56.27;100688.94;4999125;28;20038;-68
2021/09/15 05:46:21;;;;;;;14.90;8.90;;;;;;;17.68;56.08;100690.81;5008664;28;20495;-66
2021/09/15 05:48:46;;;;;;;17.27;9.48;;;;;;;17.61;55.67;100659.41;4993720;28;20023;-66
2021/09/15 05:51:12;;;;;;;18.90;10.40;;;;;;;18.03;55.39;100699.06;4992613;28;20058;-70
2021/09/15 05:53:37;;;;;;;13.80;9.77;;;;;;;17.95;55.27;100683.28;4993453;28;20499;-68
2021/09/15 05:56:03;;;;;;;14.35;10.00;;;;;;;18.23;54.75;100696.63;4995898;28;20036;-66
2021/09/15 05:58:29;;;;;;;14.98;9.25;;;;;;;18.10;55.09;100682.56;4996724;28;20030;-65
2021/09/15 06:00:55;;;;;;;19.23;9.75;;;;;;;18.37;54.97;100701.13;4993250;28;20129;-68
2021/09/15 06:03:20;;;;;;;14.40;9.20;;;;;;;18.38;55.02;100702.84;4993449;28;20540;-68
2021/09/15 06:05:45;;;;;;;20.20;9.82;;;;;;;18.53;54.44;100703.00;5000954;28;20029;-69
2021/09/15 06:08:11;;;;;;;16.90;9.00;;;;;;;18.33;54.47;100650.56;5001509;28;20035;-69
2021/09/15 06:10:36;;;;;;;18.33;9.65;;;;;;;18.77;54.21;100701.41;5006773;28;20026;-67
2021/09/15 06:13:02;;;;;;;13.43;8.68;;;;;;;18.86;53.93;100704.09;5012395;28;20543;-66
2021/09/15 06:15:27;;;;;;;18.45;9.77;;;;;;;19.02;53.61;100706.84;5011715;28;20404;-69
2021/09/15 06:17:53;;;;;;;14.68;9.13;;;;;;;18.97;53.17;100658.84;5011967;28;20112;-66
2021/09/15 06:20:20;;;;;;;12.80;9.38;;;;;;;18.94;53.05;100648.34;5004095;28;20507;-68
2021/09/15 06:22:45;;;;;;;14.38;9.27;;;;;;;19.39;52.96;100684.34;4993485;28;20106;-66
2021/09/15 06:25:11;;;;;;;16.20;8.70;;;;;;;19.59;52.31;100688.78;4998882;28;20109;-66
2021/09/15 06:27:38;;;;;;;13.23;8.43;;;;;;;19.78;51.82;100694.94;5000129;28;20022;-66
2021/09/15 06:30:05;;;;;;;15.95;9.23;;;;;;;19.59;51.81;100649.50;4965956;28;20041;-71
2021/09/15 06:32:31;;;;;;;14.40;8.77;;;;;;;19.84;51.19;100667.94;4971222;28;20456;-70
2021/09/15 06:34:56;;;;;;;15.25;8.63;;;;;;;20.13;50.98;100691.53;5011968;28;20084;-65
2021/09/15 06:37:22;;;;;;;16.75;8.80;;;;;;;20.22;51.24;100690.69;5010906;28;20034;-66
2021/09/15 06:39:48;;;;;;;13.30;7.88;;;;;;;20.22;50.42;100688.06;4992097;28;20034;-66
2021/09/15 06:42:16;;;;;;;13.02;8.13;;;;;;;20.35;51.19;100697.69;4995467;28;20030;-68
2021/09/15 06:44:41;;;;;;;14.20;8.55;;;;;;;20.26;50.32;100650.50;4992538;28;20405;-69
2021/09/15 06:47:07;;;;;;;13.40;8.18;;;;;;;20.51;50.49;100682.81;4992644;28;20034;-67
2021/09/15 06:49:33;;;;;;;13.93;7.68;;;;;;;20.75;50.12;100675.81;4991751;28;20544;-64
2021/09/15 06:51:58;;;;;;;13.05;7.93;;;;;;;20.99;49.72;100697.66;4977043;28;20038;-66
2021/09/15 06:54:24;;;;;;;15.68;8.13;;;;;;;21.10;49.35;100679.25;4995004;28;20057;-67
2021/09/15 06:56:49;;;;;;;16.65;7.57;;;;;;;20.98;49.11;100646.88;4992182;28;20065;-69
2021/09/15 06:59:15;;;;;;;9.90;7.65;;;;;;;21.43;48.56;100680.88;4993482;28;20109;-65
2021/09/15 07:01:40;;;;;;;13.75;9.68;;;;;;;21.39;47.90;100644.97;4994002;28;20478;-66
2021/09/15 07:04:06;;;;;;;13.48;7.60;;;;;;;21.74;47.38;100680.72;4994570;28;20062;-66
2021/09/15 07:06:31;;;;;;;13.85;8.00;;;;;;;21.79;47.60;100678.06;4992865;28;20102;-67
2021/09/15 07:08:57;;;;;;;15.68;7.45;;;;;;;21.87;47.04;100663.16;4992233;28;20028;-68
2021/09/15 07:11:22;;;;;;;12.52;7.18;;;;;;;21.87;46.64;100651.75;4998295;28;20045;-67
2021/09/15 07:13:48;;;;;;;12.13;7.68;;;;;;;22.21;46.31;100676.03;5011221;28;20028;-66
2021/09/15 07:16:14;;;;;;;15.18;7.07;;;;;;;22.41;46.15;100693.44;5000101;28;20026;-67
2021/09/15 07:18:40;;;;;;;13.80;7.00;;;;;;;22.32;45.44;100649.66;5000973;28;20037;-66
2021/09/15 07:21:06;;;;;;;11.40;6.72;;;;;;;22.40;45.11;100660.13;5011457;28;20034;-67
2021/09/15 07:23:32;;;;;;;12.35;6.90;;;;;;;22.75;45.50;100686.13;4972542;28;20039;-66
2021/09/15 07:25:57;;;;;;;14.63;7.70;;;;;;;22.66;44.66;100682.69;5012069;28;20035;-66
2021/09/15 07:28:22;;;;;;;10.35;7.13;;;;;;;22.87;44.55;100684.25;5010402;28;20026;-66
2021/09/15 07:30:48;;;;;;;10.95;6.30;;;;;;;23.14;43.73;100687.44;5005114;28;20078;-66
2021/09/15 07:33:14;;;;;;;8.75;6.45;;;;;;;23.09;43.67;100667.31;5006139;28;20029;-67
2021/09/15 07:35:41;;;;;;;12.65;7.13;;;;;;;23.24;43.67;100676.81;4993728;28;20489;-64
2021/09/15 07:38:07;;;;;;;15.63;7.40;;;;;;;23.37;45.92;100677.53;4993082;28;20034;-66
2021/09/15 07:40:32;;;;;;;10.50;6.68;;;;;;;23.43;43.52;100674.81;4991773;28;20042;-66
2021/09/15 07:42:59;;;;;;;13.15;7.65;;;;;;;23.53;42.45;100680.00;4991300;28;20106;-67
2021/09/15 07:45:26;;;;;;;10.07;7.43;;;;;;;23.65;42.95;100669.28;4995275;28;20018;-66
2021/09/15 07:47:51;;;;;;;15.27;6.90;;;;;;;23.72;43.59;100677.97;4994652;28;20030;-66
2021/09/15 07:50:17;;;;;;;9.60;6.80;;;;;;;23.91;41.58;100675.91;4996067;28;20117;-66
2021/09/15 07:52:42;;;;;;;14.57;7.45;;;;;;;24.09;41.77;100679.19;4996112;28;20484;-68
2021/09/15 07:55:08;;;;;;;11.48;6.45;;;;;;;24.08;42.72;100661.66;4993784;28;20073;-67
2021/09/15 07:57:34;;;;;;;12.27;7.05;;;;;;;24.25;42.82;100667.53;4973849;28;20054;-69
2021/09/15 08:00:00;;;;;;;11.30;7.15;;;;;;;24.43;41.42;100668.09;4994010;28;20033;-72
2021/09/15 08:02:27;;;;;;;9.10;6.63;;;;;;;24.42;41.76;100674.28;4993425;28;20030;-70
2021/09/15 08:04:52;;;;;;;11.43;7.15;;;;;;;24.54;41.73;100669.63;4995206;28;20033;-69
2021/09/15 08:07:19;;;;;;;12.45;6.95;;;;;;;24.45;39.90;100643.44;4994439;28;20023;-69
2021/09/15 08:09:44;;;;;;;13.80;7.28;;;;;;;24.72;39.49;100659.66;4992196;28;20428;-67
2021/09/15 08:12:10;;;;;;;8.95;6.63;;;;;;;24.95;39.79;100661.00;4993632;28;20033;-69
2021/09/15 08:14:35;;;;;;;11.20;6.80;;;;;;;25.14;42.25;100661.50;4991758;28;20030;-67
2021/09/15 08:17:01;;;;;;;9.98;6.95;;;;;;;25.27;39.85;100665.66;4994253;28;20064;-65
2021/09/15 08:19:27;;;;;;;12.23;7.03;;;;;;;25.32;39.26;100657.59;4992894;28;20086;-67
2021/09/15 08:21:53;;;;;;;14.27;7.70;;;;;;;25.19;39.23;100655.22;4994782;28;20472;-66
2021/09/15 08:24:20;;;;;;;12.15;7.05;;;;;;;25.22;39.73;100649.00;4994748;28;20049;-68
2021/09/15 08:26:46;;;;;;;13.27;7.57;;;;;;;25.30;39.76;100660.28;4995954;28;20367;-66
2021/09/15 08:29:11;;;;;;;13.30;7.47;;;;;;;25.33;39.58;100638.19;4997741;28;20153;-69
2021/09/15 08:31:37;;;;;;;11.75;7.32;;;;;;;25.40;38.54;100654.84;4997786;28;20065;-69
2021/09/15 08:34:02;;;;;;;16.13;7.68;;;;;;;25.58;40.13;100651.78;4996826;28;20109;-69
2021/09/15 08:36:28;;;;;;;12.77;7.75;;;;;;;25.65;37.60;100642.81;4997134;28;20052;-66
2021/09/15 08:38:53;;;;;;;12.00;7.25;;;;;;;25.87;40.41;100646.72;4995493;28;20031;-65
2021/09/15 08:41:19;;;;;;;15.07;6.90;;;;;;;26.02;38.50;100646.38;4992313;28;20459;-68
2021/09/15 08:43:44;;;;;;;10.13;6.85;;;;;;;26.13;37.36;100647.00;4997207;28;20026;-70
2021/09/15 08:46:13;;;;;;;13.45;7.40;;;;;;;26.21;37.09;100628.28;4997405;28;20034;-69
2021/09/15 08:48:40;;;;;;;11.73;7.38;;;;;;;26.34;36.88;100633.25;4996759;28;20196;-69
2021/09/15 08:51:13;;;;;;;12.18;7.57;;;;;;;26.35;38.00;100646.44;4996526;28;20027;-69
2021/09/15 08:53:41;;;;;;;10.25;7.15;;;;;;;26.49;35.89;100627.53;4997840;28;20099;-71
2021/09/15 08:56:07;;;;;;;9.77;6.60;;;;;;;26.49;36.29;100632.84;4998529;28;20030;-67
2021/09/15 08:58:33;;;;;;;16.73;8.13;;;;;;;26.67;37.29;100625.31;4995877;28;20030;-71
2021/09/15 09:01:19;;;;;;;15.35;7.45;;;;;;;26.85;37.31;100626.63;5000127;28;20030;-66
2021/09/15 09:03:45;;;;;;;14.90;7.93;;;;;;;26.93;35.12;100614.00;4998998;28;20027;-68
2021/09/15 09:06:17;;;;;;;13.52;7.25;;;;;;;26.93;35.65;100622.84;4993330;28;20405;-69
2021/09/15 09:08:45;;;;;;;10.40;6.88;;;;;;;26.95;35.25;100618.38;4993441;28;20026;-72
2021/09/15 09:11:14;;;;;;;9.88;6.43;;;;;;;27.08;33.64;100615.38;4998914;28;20037;-65
2021/09/15 09:13:51;;;;;;;11.40;7.28;;;;;;;27.19;33.08;100609.72;4994369;28;20453;-67
2021/09/15 09:16:19;;;;;;;11.20;6.63;;;;;;;27.24;33.78;100610.44;4997222;28;20036;-68
2021/09/15 09:18:58;;;;;;;10.85;6.85;;;;;;;27.38;33.34;100613.56;4994983;28;20048;-69
2021/09/15 09:21:28;;;;;;;;;;;;;;;27.49;35.05;100610.63;4996503;28;20109;-67
2021/09/15 09:23:58;;;;;;;9.40;6.65;;;;;;;27.64;33.89;100606.59;4994259;28;19913;-66
2021/09/15 09:26:43;;;;;;;11.32;6.53;;;;;;;27.83;34.11;100598.91;4994456;28;20034;-68
2021/09/15 09:29:23;;;;;;;10.93;6.80;;;;;;;27.90;33.38;100586.28;4994304;28;20026;-70
2021/09/15 09:32:10;;;;;;;10.52;6.95;;;;;;;28.09;33.21;100597.22;4997788;28;20026;-69
2021/09/15 09:35:02;;;;;;;10.88;6.55;;;;;;;28.22;31.94;100595.00;4997249;28;20037;-68
2021/09/15 09:37:33;;;;;;;13.45;7.13;;;;;;;28.21;33.29;100587.94;4933027;29;20036;-68
2021/09/15 09:39:58;;;;;;;9.55;6.45;;;;;;;28.04;32.42;100585.88;4932807;29;20040;-68
2021/09/15 09:42:24;;;;;;;9.15;6.78;;;;;;;28.17;33.89;100595.16;4932630;29;20047;-69
2021/09/15 09:44:50;;;;;;;12.77;7.22;;;;;;;27.95;31.92;100586.16;4932990;29;20055;-66
2021/09/15 09:47:23;;;;;;;11.93;7.05;;;;;;;27.89;31.98;100550.94;4933049;29;20414;-66
2021/09/15 09:50:04;;;;;;;12.23;7.20;;;;;;;28.49;31.43;100581.69;4919328;29;20151;-69
2021/09/15 09:52:29;;;;;;;11.50;6.65;;;;;;;28.70;31.06;100567.63;4930404;29;20032;-68
2021/09/15 09:55:04;;;;;;;10.18;6.63;;;;;;;28.92;32.16;100568.63;4932378;29;20036;-69
2021/09/15 09:57:30;;;;;;;11.82;6.97;;;;;;;29.13;34.05;100573.09;4932642;29;20027;-69
2021/09/15 09:59:58;;;;;;;9.50;6.20;;;;;;;29.18;30.60;100571.09;4932568;29;20043;-69
2021/09/15 10:02:24;;;;;;;14.57;6.18;;;;;;;29.23;30.26;100560.31;4932127;29;20058;-67
2021/09/15 10:04:52;;;;;;;11.18;6.80;;;;;;;29.24;30.29;100569.16;4927760;29;20086;-66
2021/09/15 10:07:19;;;;;;;11.40;6.60;;;;;;;29.43;30.35;100575.50;4931103;29;20053;-70
2021/09/15 10:09:45;;;;;;;11.52;7.03;;;;;;;29.40;29.58;100535.75;4931040;29;20024;-68
2021/09/15 10:12:13;;;;;;;8.93;5.97;;;;;;;29.80;29.64;100566.00;4913953;29;20100;-69
2021/09/15 10:14:39;;;;;;;11.82;6.95;;;;;;;29.81;28.55;100561.56;4952825;28;20049;-67
2021/09/15 10:17:14;;;;;;;11.50;6.80;;;;;;;29.21;29.68;100560.38;5005064;28;20400;-67
2021/09/15 10:19:43;;;;;;;12.27;6.18;;;;;;;29.40;29.44;100542.84;5007861;28;20062;-67
2021/09/15 10:22:09;;;;;;;7.40;5.90;;;;;;;29.83;29.72;100552.59;5011806;28;20041;-68
2021/09/15 10:24:55;;;;;;;12.10;5.75;;;;;;;29.82;30.83;100553.50;5009270;28;20033;-73
2021/09/15 10:27:23;;;;;;;8.98;6.15;;;;;;;29.88;30.12;100535.53;4997607;28;20034;-72
2021/09/15 10:30:04;;;;;;;14.70;5.80;;;;;;;30.21;30.54;100535.03;4994031;28;20066;-67
2021/09/15 10:32:35;;;;;;;12.68;5.80;;;;;;;29.84;30.44;100546.31;5007593;28;20120;-67
2021/09/15 10:35:05;;;;;;;10.73;6.00;;;;;;;30.00;29.48;100538.56;5009259;28;20061;-67
2021/09/15 10:37:30;;;;;;;11.02;5.40;;;;;;;29.71;30.31;100534.47;5012264;28;20034;-68
2021/09/15 10:39:59;;;;;;;11.90;6.03;;;;;;;29.68;30.71;100535.47;5012700;28;20381;-66
2021/09/15 10:42:33;;;;;;;9.73;5.70;;;;;;;29.96;28.45;100525.47;5012910;28;20040;-67
2021/09/15 10:45:17;;;;;;;10.63;5.68;;;;;;;30.17;27.77;100523.69;5013196;28;20064;-66
2021/09/15 10:47:53;;;;;;;12.20;6.50;;;;;;;30.38;27.95;100508.53;5012435;28;20030;-65
2021/09/15 10:50:27;;;;;;;10.50;5.88;;;;;;;30.21;27.71;100497.75;5004849;28;20034;-67
2021/09/15 10:53:15;;;;;;;11.55;5.63;;;;;;;30.54;27.42;100515.84;5001546;28;20033;-68
2021/09/15 10:55:41;;;;;;;11.68;5.50;;;;;;;30.78;26.98;100506.72;5012011;28;20033;-65
2021/09/15 10:58:15;;;;;;;9.30;5.93;;;;;;;30.75;26.71;100500.66;5012014;28;20022;-65
2021/09/15 11:00:50;;;;;;;9.43;5.75;;;;;;;30.90;29.05;100507.06;5009428;28;20033;-66
2021/09/15 11:03:36;;;;;;;9.98;5.93;;;;;;;31.12;27.27;100494.44;5012196;28;20033;-67
2021/09/15 11:06:08;;;;;;;9.25;5.63;;;;;;;31.28;27.97;100496.38;5009294;28;20053;-68
2021/09/15 11:08:45;;;;;;;15.38;6.30;;;;;;;30.87;27.99;100451.22;5011794;28;21464;-67
2021/09/15 11:11:20;;;;;;;9.27;6.15;;;;;;;30.66;27.70;100452.19;5010733;28;20022;-67
2021/09/15 11:14:01;;;;;;;11.27;6.00;;;;;;;30.93;27.81;100478.47;5010002;28;20409;-68
2021/09/15 11:16:36;;;;;;;7.03;5.28;;;;;;;30.90;27.95;100478.59;5010245;28;20026;-69
2021/09/15 11:19:06;;;;;;;8.57;5.47;;;;;;;30.27;28.20;100445.09;5008775;28;20421;-67
2021/09/15 11:21:37;;;;;;;8.25;5.40;;;;;;;30.37;29.33;100468.63;5008765;28;20484;-69
2021/09/15 11:24:16;;;;;;;9.20;5.45;;;;;;;30.76;30.08;100462.41;5011103;28;20021;-68
2021/09/15 11:26:43;;;;;;;10.75;5.93;;;;;;;31.13;26.70;100464.19;5010003;28;20018;-67